Angelina County Airport
KLFK : now visible

Airfield :











YOU CAN JOIN US ON...

 
LOGIN :

Register | Disclaimer

   EN    FR    IT 

 









Legend :    VFR   Marginal VFR   IFR   Intensive IFR   Very Intensive IFR
Visi :
Ceiling :
>= 8 km
>= 3000ft
5 to 8 km
1000 to 3000 ft
1500m to 5 km
500 to 1000 ft
800 to 1500m
200 to 500 ft
< 800m
< 200 ft
Symbols :   Thunderstorms  Fog  Heavy snow  Heavy precipitations  Wind > 20 kt






- Airport Elevation : 296 ft


KLFK - Angelina County

CURRENT METAR :
  • 192253Z AUTO 15003KT 10SM CLR 22/12 A2997 RMK AO2 SLP145 T02220117

EXPIRED METARs :
  • 192153Z AUTO 15006KT 10SM CLR 25/10 A2996 RMK AO2 SLP144 T02500100
  • 192053Z AUTO 16006KT 10SM CLR 26/09 A2996 RMK AO2 SLP143 T02560089 55012
  • 191953Z AUTO 11005KT 10SM CLR 26/08 A2996 RMK AO2 SLP143 T02610078

TAF KLFK
Valid from the 19 at 12:00 until the 20 at 12:00 UTC


191120Z 1912/2012 00000KT P6SM SKC
FM191600 29006KT P6SM FEW250
FM192000 17005KT P6SM FEW250
FM192300 13005KT P6SM FEW250
FM200300 VRB03KT P6SM SKC



MET'MAP, your aeronautical weather chart ! - Copyright ORBIFLY December 2007 - Disclaimer

ORBIFLY MET'MAP TEAM :

Programming & Development : Alexandra Zaïnal
Concept & Development : Baudouin d'Aumeries
Co-Development & Prog : Marc-Olivier Méhu
Technical & hardware support : Manuel Goepfert

Contact : metmap@orbifly.com




SOURCES & CREDITS :

   NOAA       Earth
Advisory